Terminal Aerodrome Forecast
Issued by NWS Sterling, VA

Current Version | Previous Version | Text Only | Print | Product List | Glossary Off
Versions: 1 2 3 4 5 6 7 8 9 10 11 12 13 14 15 16 17 18 19 20 21 22 23 24 25 26 27 28 29

000
FTUS41 KLWX 260214 AAA
TAFDCA
TAF AMD
KDCA 260214Z 2602/2624 19004KT P6SM BKN040 BKN250 WS020/21055KT
     FM260900 20006KT P6SM OVC015
     FM261200 18007KT 6SM -SHRA OVC015
     FM261600 21012KT P6SM BKN015
     FM261900 21016G26KT P6SM BKN050
     FM262300 20015KT 4SM -SHRA OVC050=

USA.gov is the U.S. government's official web portal to all federal, state and local government web resources and services.